Time,TemperatureF,DewpointF,PressureIn,WindDirection,WindDirectionDegrees,WindSpeedMPH,WindSpeedGustMPH,Humidity,HourlyPrecipIn,Conditions,Clouds,dailyrainin,SoftwareType,DateUTC
2013-10-18 00:03:00,55.7,49.9,30.06,East,90,2.4,2.4,81,0.00,,,0.00,WUHU216HW,2013-10-17 22:03:00,
2013-10-18 00:08:00,55.9,50.1,30.07,East,90,0.0,2.4,81,0.00,,,0.00,WUHU216HW,2013-10-17 22:08:00,
2013-10-18 00:13:00,55.9,50.1,30.06,East,99,1.6,2.0,81,0.00,,,0.00,WUHU216HW,2013-10-17 22:13:00,
2013-10-18 00:18:00,55.9,50.1,30.07,ESE,113,0.0,2.0,81,0.00,,,0.00,WUHU216HW,2013-10-17 22:18:00,
2013-10-18 00:23:00,55.9,50.1,30.06,ESE,103,2.3,2.6,81,0.00,,,0.00,WUHU216HW,2013-10-17 22:23:00,
2013-10-18 00:28:00,55.9,50.1,30.07,East,90,0.0,2.6,81,0.00,,,0.00,WUHU216HW,2013-10-17 22:28:00,
2013-10-18 00:33:00,55.9,50.1,30.07,NE,45,0.0,1.3,81,0.00,,,0.00,WUHU216HW,2013-10-17 22:33:00,
2013-10-18 00:38:00,55.7,49.9,30.07,East,90,1.7,1.7,81,0.00,,,0.00,WUHU216HW,2013-10-17 22:38:00,
2013-10-18 00:43:00,55.5,49.7,30.07,East,90,0.0,1.7,81,0.00,,,0.00,WUHU216HW,2013-10-17 22:43:00,
2013-10-18 00:48:00,55.5,49.7,30.07,ESE,113,0.0,2.0,81,0.00,,,0.00,WUHU216HW,2013-10-17 22:48:00,
2013-10-18 00:53:00,55.7,49.9,30.07,ENE,68,1.7,2.0,81,0.00,,,0.00,WUHU216HW,2013-10-17 22:53:00,
2013-10-18 00:58:00,55.7,49.9,30.07,ESE,113,3.8,3.8,81,0.00,,,0.00,WUHU216HW,2013-10-17 22:58:00,
2013-10-18 01:03:00,55.9,50.1,30.07,ESE,105,2.5,3.8,81,0.00,,,0.00,WUHU216HW,2013-10-17 23:03:00,
2013-10-18 01:08:00,55.9,50.1,30.07,ENE,68,0.8,3.3,81,0.00,,,0.00,WUHU216HW,2013-10-17 23:08:00,
2013-10-18 01:13:00,55.7,49.9,30.07,East,90,1.5,2.9,81,0.00,,,0.00,WUHU216HW,2013-10-17 23:13:00,
2013-10-18 01:18:00,55.7,49.9,30.07,East,90,1.5,2.9,81,0.00,,,0.00,WUHU216HW,2013-10-17 23:18:00,
2013-10-18 01:23:00,55.5,49.7,30.07,East,90,0.0,2.2,81,0.00,,,0.00,WUHU216HW,2013-10-17 23:23:00,
2013-10-18 01:28:00,55.2,49.4,30.07,ENE,68,0.0,2.2,81,0.00,,,0.00,WUHU216HW,2013-10-17 23:28:00,
2013-10-18 01:33:00,55.2,49.4,30.07,East,90,0.0,2.2,81,0.00,,,0.00,WUHU216HW,2013-10-17 23:33:00,
2013-10-18 01:38:00,55.2,49.4,30.07,ENE,68,0.0,0.0,81,0.00,,,0.00,WUHU216HW,2013-10-17 23:38:00,
2013-10-18 01:43:00,55.0,49.2,30.07,NE,45,0.0,0.0,81,0.00,,,0.00,WUHU216HW,2013-10-17 23:43:00,
2013-10-18 01:48:00,54.8,49.1,30.07,ESE,113,1.7,1.7,81,0.00,,,0.00,WUHU216HW,2013-10-17 23:48:00,
2013-10-18 01:54:00,55.0,49.2,30.07,East,90,2.2,2.2,81,0.00,,,0.00,WUHU216HW,2013-10-17 23:54:00,
2013-10-18 01:59:00,55.2,49.4,30.07,East,90,2.4,2.6,81,0.00,,,0.00,WUHU216HW,2013-10-17 23:59:00,
2013-10-18 02:03:00,55.0,49.2,30.07,WNW,293,0.0,2.6,81,0.00,,,0.00,WUHU216HW,2013-10-18 00:03:00,
2013-10-18 02:08:00,53.7,47.8,30.07,WNW,293,0.0,0.0,80,0.00,,,0.00,WUHU216HW,2013-10-18 00:08:00,
2013-10-18 02:13:00,53.2,47.6,30.07,WNW,293,0.0,0.0,81,0.00,,,0.00,WUHU216HW,2013-10-18 00:13:00,
2013-10-18 02:18:00,52.5,46.8,30.07,WNW,293,0.0,0.0,81,0.00,,,0.00,WUHU216HW,2013-10-18 00:18:00,
2013-10-18 02:24:00,52.1,46.5,30.07,WNW,293,0.0,0.0,81,0.00,,,0.00,WUHU216HW,2013-10-18 00:24:00,
2013-10-18 02:29:00,52.1,46.8,30.07,NW,315,0.0,0.0,82,0.00,,,0.00,WUHU216HW,2013-10-18 00:29:00,
2013-10-18 02:34:00,51.9,46.6,30.07,WNW,293,0.0,0.0,82,0.00,,,0.00,WUHU216HW,2013-10-18 00:34:00,
2013-10-18 02:38:00,51.8,46.4,30.07,NE,45,1.3,1.3,82,0.00,,,0.00,WUHU216HW,2013-10-18 00:38:00,
2013-10-18 02:43:00,51.9,46.6,30.06,North,0,0.0,1.3,82,0.00,,,0.00,WUHU216HW,2013-10-18 00:43:00,
2013-10-18 02:48:00,52.1,46.8,30.06,North,0,0.0,0.0,82,0.00,,,0.00,WUHU216HW,2013-10-18 00:48:00,
2013-10-18 02:53:00,51.6,46.2,30.06,NNE,23,0.0,0.8,81,0.00,,,0.00,WUHU216HW,2013-10-18 00:53:00,
2013-10-18 02:59:00,51.4,45.8,30.06,NNE,23,0.0,0.8,81,0.00,,,0.00,WUHU216HW,2013-10-18 00:59:00,
2013-10-18 03:04:00,51.4,45.8,30.07,NNE,23,0.0,0.0,81,0.00,,,0.00,WUHU216HW,2013-10-18 01:04:00,
2013-10-18 03:10:00,51.4,45.8,30.07,NNE,23,0.0,0.0,81,0.00,,,0.00,WUHU216HW,2013-10-18 01:10:00,
2013-10-18 03:15:00,50.9,45.2,30.07,SW,225,2.6,5.1,81,0.00,,,0.00,WUHU216HW,2013-10-18 01:15:00,
2013-10-18 03:20:00,50.7,45.0,30.07,SW,225,0.0,5.1,81,0.00,,,0.00,WUHU216HW,2013-10-18 01:20:00,
2013-10-18 03:25:00,50.5,45.2,30.07,ENE,68,0.0,2.0,82,0.00,,,0.00,WUHU216HW,2013-10-18 01:25:00,
2013-10-18 03:30:00,50.7,45.0,30.07,ENE,68,0.0,0.0,81,0.00,,,0.00,WUHU216HW,2013-10-18 01:30:00,
2013-10-18 03:35:00,50.7,45.0,30.07,ENE,68,0.0,0.0,81,0.00,,,0.00,WUHU216HW,2013-10-18 01:35:00,
2013-10-18 03:41:00,50.9,45.2,30.07,NE,45,0.0,0.0,81,0.00,,,0.00,WUHU216HW,2013-10-18 01:41:00,
2013-10-18 03:46:00,51.0,45.4,30.07,NE,45,0.0,0.0,81,0.00,,,0.00,WUHU216HW,2013-10-18 01:46:00,
2013-10-18 03:52:00,51.0,45.4,30.07,NE,45,0.0,0.0,81,0.00,,,0.00,WUHU216HW,2013-10-18 01:52:00,
2013-10-18 03:57:00,51.0,45.4,30.07,North,0,0.0,0.0,81,0.00,,,0.00,WUHU216HW,2013-10-18 01:57:00,
2013-10-18 04:02:00,51.2,45.6,30.07,SE,135,0.0,0.0,81,0.00,,,0.00,WUHU216HW,2013-10-18 02:02:00,
2013-10-18 04:07:00,51.6,45.9,30.07,ESE,113,0.0,0.0,81,0.00,,,0.00,WUHU216HW,2013-10-18 02:07:00,
2013-10-18 04:12:00,51.2,45.6,30.07,NE,45,0.0,0.0,81,0.00,,,0.00,WUHU216HW,2013-10-18 02:12:00,
2013-10-18 04:17:00,51.0,45.4,30.07,East,90,0.0,0.0,81,0.00,,,0.00,WUHU216HW,2013-10-18 02:17:00,
2013-10-18 04:24:00,50.9,45.2,30.07,SSW,203,0.0,0.0,81,0.00,,,0.00,WUHU216HW,2013-10-18 02:24:00,
2013-10-18 04:29:00,50.7,45.0,30.07,SW,225,0.0,0.0,81,0.00,,,0.00,WUHU216HW,2013-10-18 02:29:00,
2013-10-18 04:34:00,50.9,45.2,30.07,WNW,293,0.0,0.0,81,0.00,,,0.00,WUHU216HW,2013-10-18 02:34:00,
2013-10-18 04:39:00,50.5,44.9,30.06,North,0,0.0,0.0,81,0.00,,,0.00,WUHU216HW,2013-10-18 02:39:00,
2013-10-18 04:44:00,50.1,44.5,30.06,North,0,0.0,0.0,81,0.00,,,0.00,WUHU216HW,2013-10-18 02:44:00,
2013-10-18 04:49:00,50.1,44.5,30.07,North,0,0.0,0.0,81,0.00,,,0.00,WUHU216HW,2013-10-18 02:49:00,
2013-10-18 04:56:00,50.1,44.5,30.06,NNW,338,0.0,0.0,81,0.00,,,0.00,WUHU216HW,2013-10-18 02:56:00,
2013-10-18 05:01:00,50.1,44.5,30.07,North,0,0.0,0.0,81,0.00,,,0.00,WUHU216HW,2013-10-18 03:01:00,
2013-10-18 05:06:00,50.5,44.9,30.06,North,0,0.0,0.0,81,0.00,,,0.00,WUHU216HW,2013-10-18 03:06:00,
2013-10-18 05:11:00,50.5,44.6,30.06,North,0,0.0,0.0,80,0.00,,,0.00,WUHU216HW,2013-10-18 03:11:00,
2013-10-18 05:16:00,50.7,44.7,30.06,NE,45,0.0,0.0,80,0.00,,,0.00,WUHU216HW,2013-10-18 03:16:00,
2013-10-18 05:21:00,50.5,44.6,30.07,North,0,0.0,0.0,80,0.00,,,0.00,WUHU216HW,2013-10-18 03:21:00,
2013-10-18 05:26:00,50.3,44.7,30.07,East,90,0.0,0.0,81,0.00,,,0.00,WUHU216HW,2013-10-18 03:26:00,
2013-10-18 05:31:00,50.7,44.7,30.06,East,97,1.7,2.2,80,0.00,,,0.00,WUHU216HW,2013-10-18 03:31:00,
2013-10-18 05:36:00,51.0,45.4,30.06,ENE,76,2.0,2.6,81,0.00,,,0.00,WUHU216HW,2013-10-18 03:36:00,
2013-10-18 05:41:00,51.6,45.9,30.06,East,90,0.0,2.6,81,0.00,,,0.00,WUHU216HW,2013-10-18 03:41:00,
2013-10-18 05:46:00,51.6,45.9,30.06,NE,45,0.0,0.8,81,0.00,,,0.00,WUHU216HW,2013-10-18 03:46:00,
2013-10-18 05:51:00,51.2,45.6,30.07,ENE,68,0.0,0.0,81,0.00,,,0.00,WUHU216HW,2013-10-18 03:51:00,
2013-10-18 05:56:00,50.9,45.5,30.06,ENE,68,0.0,0.0,82,0.00,,,0.00,WUHU216HW,2013-10-18 03:56:00,
2013-10-18 06:01:00,50.7,45.3,30.06,NE,45,0.0,0.0,82,0.00,,,0.00,WUHU216HW,2013-10-18 04:01:00,
2013-10-18 06:06:00,50.3,45.0,30.05,NE,45,0.0,0.0,82,0.00,,,0.00,WUHU216HW,2013-10-18 04:06:00,
2013-10-18 06:11:00,50.1,44.8,30.06,SW,225,1.1,1.1,82,0.00,,,0.00,WUHU216HW,2013-10-18 04:11:00,
2013-10-18 06:16:00,50.1,44.8,30.06,WNW,293,0.0,1.1,82,0.00,,,0.00,WUHU216HW,2013-10-18 04:16:00,
2013-10-18 06:21:00,50.3,45.0,30.06,NE,45,0.0,0.0,82,0.00,,,0.00,WUHU216HW,2013-10-18 04:21:00,
2013-10-18 06:26:00,50.1,44.8,30.06,ENE,68,0.0,0.0,82,0.00,,,0.00,WUHU216HW,2013-10-18 04:26:00,
2013-10-18 08:52:00,53.0,47.4,30.09,NNW,338,0.0,0.0,81,0.00,,,0.00,WUHU216HW,2013-10-18 06:52:00,
2013-10-18 08:57:00,53.7,47.9,30.09,NNW,338,0.0,0.0,81,0.00,,,0.00,WUHU216HW,2013-10-18 06:57:00,
2013-10-18 09:02:00,54.3,48.6,30.10,NNW,338,0.0,0.0,81,0.00,,,0.00,WUHU216HW,2013-10-18 07:02:00,
2013-10-18 09:07:00,56.3,50.1,30.10,NNW,338,0.0,0.0,80,0.00,,,0.00,WUHU216HW,2013-10-18 07:07:00,
2013-10-18 09:12:00,57.3,50.5,30.11,North,0,0.0,0.0,78,0.00,,,0.00,WUHU216HW,2013-10-18 07:12:00,
2013-10-18 09:17:00,57.7,50.9,30.11,North,0,0.0,0.0,78,0.00,,,0.00,WUHU216HW,2013-10-18 07:17:00,
2013-10-18 09:24:00,57.7,50.1,30.11,North,0,0.0,0.0,77,0.00,,,0.00,WUHU216HW,2013-10-18 07:24:00,
2013-10-18 09:29:00,58.4,51.2,30.10,North,0,0.0,0.0,77,0.00,,,0.00,WUHU216HW,2013-10-18 07:29:00,
2013-10-18 09:35:00,58.8,50.9,30.10,North,0,0.0,0.0,75,0.00,,,0.00,WUHU216HW,2013-10-18 07:35:00,
2013-10-18 09:40:00,59.5,51.9,30.11,NNW,338,0.0,0.0,76,0.00,,,0.00,WUHU216HW,2013-10-18 07:40:00,
2013-10-18 09:45:00,60.4,52.5,30.11,NNW,338,0.0,0.0,75,0.00,,,0.00,WUHU216HW,2013-10-18 07:45:00,
2013-10-18 09:50:00,60.9,53.0,30.10,NNW,338,0.0,0.0,75,0.00,,,0.00,WUHU216HW,2013-10-18 07:50:00,
2013-10-18 09:55:00,61.8,52.9,30.10,NW,315,0.0,0.0,73,0.00,,,0.00,WUHU216HW,2013-10-18 07:55:00,
2013-10-18 10:00:00,62.7,52.8,30.11,WNW,293,0.0,0.0,70,0.00,,,0.00,WUHU216HW,2013-10-18 08:00:00,
2013-10-18 10:05:00,63.3,52.5,30.11,West,270,0.0,0.0,68,0.00,,,0.00,WUHU216HW,2013-10-18 08:05:00,
2013-10-18 10:10:00,64.0,52.4,30.11,SSW,203,0.6,0.6,66,0.00,,,0.00,WUHU216HW,2013-10-18 08:10:00,
2013-10-18 10:15:00,64.7,53.2,30.11,SSW,203,0.0,0.6,66,0.00,,,0.00,WUHU216HW,2013-10-18 08:15:00,
2013-10-18 10:20:00,66.3,52.9,30.11,NNW,338,0.0,0.0,62,0.00,,,0.00,WUHU216HW,2013-10-18 08:20:00,
2013-10-18 10:25:00,66.9,53.4,30.11,SSW,203,2.0,2.0,62,0.00,,,0.00,WUHU216HW,2013-10-18 08:25:00,
2013-10-18 10:30:00,66.9,52.6,30.11,SSE,158,0.0,2.0,60,0.00,,,0.00,WUHU216HW,2013-10-18 08:30:00,
2013-10-18 10:35:00,67.1,52.3,30.11,SW,225,1.1,2.0,59,0.00,,,0.00,WUHU216HW,2013-10-18 08:35:00,
2013-10-18 10:40:00,66.9,51.6,30.11,SSW,213,1.9,3.8,58,0.00,,,0.00,WUHU216HW,2013-10-18 08:40:00,
2013-10-18 10:45:00,66.9,51.6,30.10,SSE,158,0.0,3.8,58,0.00,,,0.00,WUHU216HW,2013-10-18 08:45:00,
2013-10-18 10:50:00,68.1,51.3,30.10,SSW,203,2.0,2.0,55,0.00,,,0.00,WUHU216HW,2013-10-18 08:50:00,
2013-10-18 10:55:00,68.7,50.3,30.11,South,180,2.2,2.4,52,0.00,,,0.00,WUHU216HW,2013-10-18 08:55:00,
2013-10-18 11:00:00,69.0,50.7,30.11,South,180,0.0,2.4,52,0.00,,,0.00,WUHU216HW,2013-10-18 09:00:00,
2013-10-18 11:05:00,70.5,51.5,30.11,SSE,158,1.1,2.4,51,0.00,,,0.00,WUHU216HW,2013-10-18 09:05:00,
2013-10-18 11:10:00,70.1,50.6,30.11,SSW,203,2.4,2.4,50,0.00,,,0.00,WUHU216HW,2013-10-18 09:10:00,
2013-10-18 11:15:00,69.6,48.4,30.11,SW,225,3.1,5.1,47,0.00,,,0.00,WUHU216HW,2013-10-18 09:15:00,
2013-10-18 11:20:00,68.9,47.1,30.11,West,270,3.3,6.2,46,0.00,,,0.00,WUHU216HW,2013-10-18 09:20:00,
2013-10-18 11:25:00,69.6,47.2,30.12,SSW,209,3.5,6.2,45,0.00,,,0.00,WUHU216HW,2013-10-18 09:25:00,
2013-10-18 11:30:00,69.6,46.0,30.12,SSW,213,3.2,5.8,43,0.00,,,0.00,WUHU216HW,2013-10-18 09:30:00,
2013-10-18 11:35:00,69.6,44.8,30.11,WSW,248,1.5,7.6,41,0.00,,,0.00,WUHU216HW,2013-10-18 09:35:00,
2013-10-18 11:40:00,70.1,45.9,30.11,West,270,7.6,7.6,42,0.00,,,0.00,WUHU216HW,2013-10-18 09:40:00,
2013-10-18 11:45:00,70.3,46.6,30.11,SW,225,7.8,7.8,43,0.00,,,0.00,WUHU216HW,2013-10-18 09:45:00,
2013-10-18 11:50:00,70.5,46.8,30.12,SW,225,7.1,7.8,43,0.00,,,0.00,WUHU216HW,2013-10-18 09:50:00,
2013-10-18 11:55:00,71.2,46.9,30.12,SW,225,5.8,7.6,42,0.00,,,0.00,WUHU216HW,2013-10-18 09:55:00,
2013-10-18 12:00:00,71.2,46.9,30.12,SW,225,7.6,7.6,42,0.00,,,0.00,WUHU216HW,2013-10-18 10:00:00,
2013-10-18 12:05:00,71.2,47.4,30.11,WSW,237,5.1,7.6,43,0.00,,,0.00,WUHU216HW,2013-10-18 10:05:00,
2013-10-18 12:10:00,71.2,48.0,30.11,SSW,212,6.4,7.6,44,0.00,,,0.00,WUHU216HW,2013-10-18 10:10:00,
2013-10-18 12:15:00,71.4,47.6,30.12,SW,225,6.4,7.6,43,0.00,,,0.00,WUHU216HW,2013-10-18 10:15:00,
2013-10-18 12:20:00,72.1,48.3,30.11,SSE,158,3.5,6.4,43,0.00,,,0.00,WUHU216HW,2013-10-18 10:20:00,
2013-10-18 12:25:00,71.9,49.3,30.11,SW,235,5.1,5.8,45,0.00,,,0.00,WUHU216HW,2013-10-18 10:25:00,
2013-10-18 12:30:00,71.7,49.1,30.11,SW,214,4.4,6.0,45,0.00,,,0.00,WUHU216HW,2013-10-18 10:30:00,
2013-10-18 12:35:00,72.1,49.4,30.11,West,270,4.0,6.0,45,0.00,,,0.00,WUHU216HW,2013-10-18 10:35:00,
2013-10-18 12:40:00,72.3,49.2,30.11,SW,225,6.0,6.0,44,0.00,,,0.00,WUHU216HW,2013-10-18 10:40:00,
2013-10-18 12:45:00,72.3,49.0,30.10,SW,225,6.4,6.4,44,0.00,,,0.00,WUHU216HW,2013-10-18 10:45:00,
2013-10-18 12:50:00,72.6,48.7,30.10,South,180,4.9,6.4,43,0.00,,,0.00,WUHU216HW,2013-10-18 10:50:00,
2013-10-18 12:55:00,73.0,48.5,30.10,SW,225,5.1,7.3,42,0.00,,,0.00,WUHU216HW,2013-10-18 10:55:00,
2013-10-18 13:00:00,73.0,48.5,30.10,SW,225,6.2,7.3,43,0.00,,,0.00,WUHU216HW,2013-10-18 11:00:00,
2013-10-18 13:05:00,73.0,48.5,30.10,SSW,203,5.3,6.2,42,0.00,,,0.00,WUHU216HW,2013-10-18 11:05:00,
2013-10-18 13:10:00,73.7,48.5,30.10,SSE,158,3.3,5.8,41,0.00,,,0.00,WUHU216HW,2013-10-18 11:10:00,
2013-10-18 13:15:00,73.9,48.7,30.10,SSW,203,3.3,5.8,41,0.00,,,0.00,WUHU216HW,2013-10-18 11:15:00,
2013-10-18 13:20:00,73.4,48.2,30.09,SW,225,6.7,7.6,41,0.00,,,0.00,WUHU216HW,2013-10-18 11:20:00,
2013-10-18 13:25:00,73.7,49.1,30.09,SSE,158,6.7,7.6,42,0.00,,,0.00,WUHU216HW,2013-10-18 11:25:00,
2013-10-18 13:30:00,73.9,49.3,30.09,South,169,5.7,6.7,42,0.00,,,0.00,WUHU216HW,2013-10-18 11:30:00,
2013-10-18 13:35:00,74.3,49.6,30.09,East,90,3.3,6.2,42,0.00,,,0.00,WUHU216HW,2013-10-18 11:35:00,
2013-10-18 13:40:00,74.4,49.2,30.09,SW,225,5.1,5.1,41,0.00,,,0.00,WUHU216HW,2013-10-18 11:40:00,
2013-10-18 13:47:00,74.1,50.1,30.09,WSW,248,5.1,5.8,43,0.00,,,0.00,WUHU216HW,2013-10-18 11:47:00,
2013-10-18 13:52:00,73.7,49.9,30.09,SSE,158,3.8,6.7,43,0.00,,,0.00,WUHU216HW,2013-10-18 11:52:00,
2013-10-18 13:58:00,74.4,49.2,30.08,SSW,203,3.5,8.0,41,0.00,,,0.00,WUHU216HW,2013-10-18 11:58:00,
2013-10-18 14:03:00,75.3,50.6,30.09,SW,225,2.2,8.0,42,0.00,,,0.00,WUHU216HW,2013-10-18 12:03:00,
2013-10-18 14:08:00,75.2,49.8,30.09,WSW,249,4.8,5.1,41,0.00,,,0.00,WUHU216HW,2013-10-18 12:08:00,
2013-10-18 14:13:00,75.0,50.9,30.08,WSW,248,4.3,5.1,42,0.00,,,0.00,WUHU216HW,2013-10-18 12:13:00,
2013-10-18 14:18:00,74.8,50.1,30.08,SW,225,2.4,5.1,42,0.00,,,0.00,WUHU216HW,2013-10-18 12:18:00,
2013-10-18 14:23:00,75.2,49.2,30.08,SW,232,4.2,5.8,40,0.00,,,0.00,WUHU216HW,2013-10-18 12:23:00,
2013-10-18 14:28:00,75.0,49.1,30.08,South,180,5.1,5.8,40,0.00,,,0.00,WUHU216HW,2013-10-18 12:28:00,
2013-10-18 14:33:00,75.0,49.1,30.08,NE,45,0.0,5.5,40,0.00,,,0.00,WUHU216HW,2013-10-18 12:33:00,
2013-10-18 14:38:00,75.5,49.6,30.08,SSE,158,2.4,5.3,41,0.00,,,0.00,WUHU216HW,2013-10-18 12:38:00,
2013-10-18 14:43:00,75.9,49.9,30.08,SSW,203,4.0,4.0,40,0.00,,,0.00,WUHU216HW,2013-10-18 12:43:00,
2013-10-18 14:48:00,75.9,49.9,30.08,SSW,194,3.0,4.0,40,0.00,,,0.00,WUHU216HW,2013-10-18 12:48:00,
2013-10-18 14:53:00,75.7,49.7,30.08,SW,219,4.2,5.8,40,0.00,,,0.00,WUHU216HW,2013-10-18 12:53:00,
2013-10-18 14:58:00,75.7,50.3,30.08,SW,225,2.7,8.5,41,0.00,,,0.00,WUHU216HW,2013-10-18 12:58:00,
2013-10-18 15:03:00,76.2,50.8,30.07,West,270,3.8,8.5,41,0.00,,,0.00,WUHU216HW,2013-10-18 13:03:00,
2013-10-18 15:08:00,75.9,50.5,30.08,WSW,248,4.4,5.3,41,0.00,,,0.00,WUHU216HW,2013-10-18 13:08:00,
2013-10-18 15:13:00,75.7,49.9,30.08,WSW,243,6.7,7.8,40,0.00,,,0.00,WUHU216HW,2013-10-18 13:13:00,
2013-10-18 15:18:00,75.5,50.8,30.07,SSW,203,3.5,7.8,42,0.00,,,0.00,WUHU216HW,2013-10-18 13:18:00,
2013-10-18 15:23:00,75.5,50.8,30.07,WSW,248,2.0,4.2,42,0.00,,,0.00,WUHU216HW,2013-10-18 13:23:00,
2013-10-18 15:28:00,75.7,50.3,30.07,SW,225,5.8,5.8,41,0.00,,,0.00,WUHU216HW,2013-10-18 13:28:00,
2013-10-18 15:34:00,75.9,50.5,30.07,South,180,3.1,5.8,41,0.00,,,0.00,WUHU216HW,2013-10-18 13:34:00,
2013-10-18 15:39:00,75.3,49.4,30.07,SW,225,6.1,8.0,40,0.00,,,0.00,WUHU216HW,2013-10-18 13:39:00,
2013-10-18 15:45:00,75.5,50.2,30.07,SW,218,3.3,8.0,41,0.00,,,0.00,WUHU216HW,2013-10-18 13:45:00,
2013-10-18 15:50:00,75.3,50.6,30.07,SSW,203,4.4,6.2,42,0.00,,,0.00,WUHU216HW,2013-10-18 13:50:00,
2013-10-18 15:55:00,75.3,50.6,30.07,SW,225,4.9,6.2,42,0.00,,,0.00,WUHU216HW,2013-10-18 13:55:00,
2013-10-18 16:00:00,75.3,51.2,30.07,SE,135,4.6,4.9,43,0.00,,,0.00,WUHU216HW,2013-10-18 14:00:00,
2013-10-18 16:05:00,75.3,50.6,30.08,SW,216,3.7,4.9,42,0.00,,,0.00,WUHU216HW,2013-10-18 14:05:00,
2013-10-18 16:10:00,75.0,50.9,30.08,SSW,212,2.8,5.8,43,0.00,,,0.00,WUHU216HW,2013-10-18 14:10:00,
2013-10-18 16:15:00,75.0,50.9,30.08,South,180,4.9,5.8,43,0.00,,,0.00,WUHU216HW,2013-10-18 14:15:00,
2013-10-18 16:20:00,74.8,50.7,30.07,SSE,158,5.8,7.6,43,0.00,,,0.00,WUHU216HW,2013-10-18 14:20:00,
2013-10-18 16:25:00,75.3,51.2,30.08,SW,225,3.1,7.6,43,0.00,,,0.00,WUHU216HW,2013-10-18 14:25:00,
2013-10-18 16:30:00,75.0,50.9,30.08,SSE,164,2.0,5.1,43,0.00,,,0.00,WUHU216HW,2013-10-18 14:30:00,
2013-10-18 16:35:00,74.6,51.2,30.07,SSE,168,4.0,6.2,44,0.00,,,0.00,WUHU216HW,2013-10-18 14:35:00,
2013-10-18 16:40:00,74.3,51.4,30.08,SSW,193,4.9,6.2,45,0.00,,,0.00,WUHU216HW,2013-10-18 14:40:00,
2013-10-18 16:45:00,74.1,51.9,30.08,South,191,5.2,5.8,46,0.00,,,0.00,WUHU216HW,2013-10-18 14:45:00,
2013-10-18 16:50:00,74.3,52.0,30.08,SW,225,8.2,8.2,46,0.00,,,0.00,WUHU216HW,2013-10-18 14:50:00,
2013-10-18 16:55:00,73.5,51.9,30.08,SSW,194,3.0,8.2,47,0.00,,,0.00,WUHU216HW,2013-10-18 14:55:00,
2013-10-18 17:00:00,73.2,52.2,30.08,South,175,2.8,6.4,48,0.00,,,0.00,WUHU216HW,2013-10-18 15:00:00,
2013-10-18 17:05:00,72.5,52.3,30.09,SW,214,3.4,6.7,49,0.00,,,0.00,WUHU216HW,2013-10-18 15:05:00,
2013-10-18 17:10:00,72.3,52.7,30.09,SSE,158,3.1,6.7,50,0.00,,,0.00,WUHU216HW,2013-10-18 15:10:00,
2013-10-18 17:15:00,72.3,52.6,30.09,SSE,158,3.1,5.8,50,0.00,,,0.00,WUHU216HW,2013-10-18 15:15:00,
2013-10-18 17:20:00,72.1,52.9,30.09,SW,225,0.0,5.8,51,0.00,,,0.00,WUHU216HW,2013-10-18 15:20:00,
2013-10-18 17:25:00,71.7,52.6,30.09,South,180,5.8,5.8,51,0.00,,,0.00,WUHU216HW,2013-10-18 15:25:00,
2013-10-18 17:30:00,71.4,52.3,30.09,SSE,158,3.9,6.2,51,0.00,,,0.00,WUHU216HW,2013-10-18 15:30:00,
2013-10-18 17:35:00,70.8,51.8,30.09,South,169,5.9,6.2,51,0.00,,,0.00,WUHU216HW,2013-10-18 15:35:00,
2013-10-18 17:40:00,70.5,52.0,30.09,SSE,168,4.1,6.4,52,0.00,,,0.00,WUHU216HW,2013-10-18 15:40:00,
2013-10-18 17:45:00,69.9,52.1,30.09,SW,219,3.8,6.7,53,0.00,,,0.00,WUHU216HW,2013-10-18 15:45:00,
2013-10-18 17:50:00,69.6,52.1,30.09,SSW,210,3.0,6.7,54,0.00,,,0.00,WUHU216HW,2013-10-18 15:50:00,
2013-10-18 17:55:00,69.4,52.5,30.09,SSW,203,7.1,7.1,55,0.00,,,0.00,WUHU216HW,2013-10-18 15:55:00,
2013-10-18 18:00:00,68.9,52.0,30.09,SW,225,2.4,7.1,55,0.00,,,0.00,WUHU216HW,2013-10-18 16:00:00,
2013-10-18 18:05:00,68.5,52.6,30.09,WSW,248,2.2,4.0,57,0.00,,,0.00,WUHU216HW,2013-10-18 16:05:00,
2013-10-18 18:10:00,68.1,52.3,30.10,WSW,248,0.0,2.2,57,0.00,,,0.00,WUHU216HW,2013-10-18 16:10:00,
2013-10-18 18:15:00,67.8,53.1,30.10,ENE,68,0.0,0.0,59,0.00,,,0.00,WUHU216HW,2013-10-18 16:15:00,
2013-10-18 18:21:00,67.6,53.2,30.10,NE,45,1.5,1.5,60,0.00,,,0.00,WUHU216HW,2013-10-18 16:21:00,
2013-10-18 18:26:00,66.9,53.4,30.10,NE,45,0.0,1.5,62,0.00,,,0.00,WUHU216HW,2013-10-18 16:26:00,
2013-10-18 18:32:00,66.3,53.3,30.10,ENE,68,0.0,0.0,63,0.00,,,0.00,WUHU216HW,2013-10-18 16:32:00,
2013-10-18 18:37:00,65.8,53.2,30.11,ESE,113,0.0,0.0,64,0.00,,,0.00,WUHU216HW,2013-10-18 16:37:00,
2013-10-18 18:42:00,65.1,53.1,30.11,ENE,68,0.0,0.0,65,0.00,,,0.00,WUHU216HW,2013-10-18 16:42:00,
2013-10-18 18:47:00,64.9,53.6,30.11,North,0,0.8,0.8,67,0.00,,,0.00,WUHU216HW,2013-10-18 16:47:00,
2013-10-18 18:52:00,64.2,53.8,30.11,North,0,0.0,0.8,69,0.00,,,0.00,WUHU216HW,2013-10-18 16:52:00,
2013-10-18 18:57:00,63.6,54.1,30.11,NE,45,0.0,0.8,71,0.00,,,0.00,WUHU216HW,2013-10-18 16:57:00,
2013-10-18 19:03:00,63.3,54.1,30.11,NNE,23,0.0,0.8,72,0.00,,,0.00,WUHU216HW,2013-10-18 17:03:00,
2013-10-18 19:08:00,62.9,53.7,30.12,SSE,158,0.0,0.0,72,0.00,,,0.00,WUHU216HW,2013-10-18 17:08:00,
2013-10-18 19:13:00,62.6,54.1,30.12,East,90,0.0,0.0,74,0.00,,,0.00,WUHU216HW,2013-10-18 17:13:00,
2013-10-18 19:18:00,62.4,54.3,30.12,NE,45,0.0,0.0,75,0.00,,,0.00,WUHU216HW,2013-10-18 17:18:00,
2013-10-18 19:23:00,61.8,54.2,30.12,ENE,68,0.0,0.0,76,0.00,,,0.00,WUHU216HW,2013-10-18 17:23:00,
2013-10-18 19:28:00,61.5,53.8,30.12,ESE,113,0.0,0.0,76,0.00,,,0.00,WUHU216HW,2013-10-18 17:28:00,
2013-10-18 19:33:00,61.5,53.8,30.12,ESE,113,0.0,0.0,76,0.00,,,0.00,WUHU216HW,2013-10-18 17:33:00,
2013-10-18 19:35:00,61.5,53.8,30.12,East,90,0.0,0.0,76,0.00,,,0.00,WUHU216HW,2013-10-18 17:35:00,
2013-10-18 19:40:00,61.5,53.8,30.12,ENE,68,0.0,0.0,76,0.00,,,0.00,WUHU216HW,2013-10-18 17:40:00,
2013-10-18 19:45:00,61.5,54.2,30.13,NE,45,0.0,0.0,77,0.00,,,0.00,WUHU216HW,2013-10-18 17:45:00,
2013-10-18 19:50:00,61.3,54.0,30.13,North,0,1.3,1.3,77,0.00,,,0.00,WUHU216HW,2013-10-18 17:50:00,
2013-10-18 19:55:00,60.6,53.7,30.13,NNE,23,0.0,1.3,78,0.00,,,0.00,WUHU216HW,2013-10-18 17:55:00,
2013-10-18 20:00:00,60.4,53.6,30.13,NE,45,0.0,0.0,78,0.00,,,0.00,WUHU216HW,2013-10-18 18:00:00,
2013-10-18 20:05:00,60.0,53.6,30.13,East,90,0.0,0.0,79,0.00,,,0.00,WUHU216HW,2013-10-18 18:05:00,
2013-10-18 20:10:00,60.0,53.6,30.13,ENE,68,0.0,0.0,79,0.00,,,0.00,WUHU216HW,2013-10-18 18:10:00,
2013-10-18 20:15:00,60.0,53.6,30.13,East,90,0.0,0.0,79,0.00,,,0.00,WUHU216HW,2013-10-18 18:15:00,
2013-10-18 20:20:00,59.9,53.7,30.14,NE,45,0.0,0.0,80,0.00,,,0.00,WUHU216HW,2013-10-18 18:20:00,
2013-10-18 20:25:00,59.7,53.6,30.14,NE,45,0.0,0.0,80,0.00,,,0.00,WUHU216HW,2013-10-18 18:25:00,
2013-10-18 20:30:00,59.7,53.6,30.13,SE,135,0.0,0.0,80,0.00,,,0.00,WUHU216HW,2013-10-18 18:30:00,
2013-10-18 20:35:00,59.5,53.4,30.13,NNE,23,0.0,0.0,80,0.00,,,0.00,WUHU216HW,2013-10-18 18:35:00,
2013-10-18 20:40:00,59.1,53.0,30.14,NE,45,0.0,0.0,80,0.00,,,0.00,WUHU216HW,2013-10-18 18:40:00,
2013-10-18 20:45:00,59.0,52.8,30.14,NE,45,0.0,0.0,80,0.00,,,0.00,WUHU216HW,2013-10-18 18:45:00,
2013-10-18 20:50:00,58.8,52.7,30.14,NE,45,0.0,0.0,80,0.00,,,0.00,WUHU216HW,2013-10-18 18:50:00,
2013-10-18 20:55:00,58.8,53.0,30.14,NE,45,0.0,0.0,81,0.00,,,0.00,WUHU216HW,2013-10-18 18:55:00,
2013-10-18 21:00:00,58.6,52.8,30.14,NE,45,0.0,0.0,81,0.00,,,0.00,WUHU216HW,2013-10-18 19:00:00,
2013-10-18 21:05:00,58.4,52.8,30.14,NE,45,0.0,0.0,81,0.00,,,0.00,WUHU216HW,2013-10-18 19:05:00,
2013-10-18 21:10:00,58.4,52.6,30.15,NE,45,0.0,0.0,81,0.00,,,0.00,WUHU216HW,2013-10-18 19:10:00,
2013-10-18 21:15:00,58.2,52.4,30.15,NE,45,0.0,0.0,81,0.00,,,0.00,WUHU216HW,2013-10-18 19:15:00,
2013-10-18 21:20:00,58.1,52.3,30.14,NE,45,0.0,0.0,81,0.00,,,0.00,WUHU216HW,2013-10-18 19:20:00,
2013-10-18 21:25:00,57.9,52.1,30.14,North,0,0.0,0.0,81,0.00,,,0.00,WUHU216HW,2013-10-18 19:25:00,
2013-10-18 21:30:00,57.7,51.9,30.14,NNE,23,0.0,0.0,81,0.00,,,0.00,WUHU216HW,2013-10-18 19:30:00,
2013-10-18 21:35:00,57.5,51.7,30.14,NNE,23,0.0,0.0,81,0.00,,,0.00,WUHU216HW,2013-10-18 19:35:00,
2013-10-18 21:40:00,57.3,51.5,30.15,NNE,23,0.0,0.0,81,0.00,,,0.00,WUHU216HW,2013-10-18 19:40:00,
2013-10-18 21:45:00,57.3,51.5,30.15,NNE,23,0.0,0.0,81,0.00,,,0.00,WUHU216HW,2013-10-18 19:45:00,
2013-10-18 21:50:00,57.3,51.5,30.15,North,0,0.0,0.0,81,0.00,,,0.00,WUHU216HW,2013-10-18 19:50:00,
2013-10-18 21:55:00,57.3,51.5,30.15,NNE,23,0.0,0.0,81,0.00,,,0.00,WUHU216HW,2013-10-18 19:55:00,
2013-10-18 22:00:00,57.0,51.2,30.15,NNE,23,0.0,0.0,81,0.00,,,0.00,WUHU216HW,2013-10-18 20:00:00,
2013-10-18 22:05:00,57.0,51.2,30.15,NNW,338,0.0,0.0,81,0.00,,,0.00,WUHU216HW,2013-10-18 20:05:00,
2013-10-18 22:10:00,57.0,51.2,30.15,NNW,338,0.0,0.0,81,0.00,,,0.00,WUHU216HW,2013-10-18 20:10:00,
2013-10-18 22:15:00,57.0,50.9,30.15,NNW,338,0.0,0.0,80,0.00,,,0.00,WUHU216HW,2013-10-18 20:15:00,
2013-10-18 22:20:00,57.0,50.9,30.16,NE,45,0.0,0.0,80,0.00,,,0.00,WUHU216HW,2013-10-18 20:20:00,
2013-10-18 22:25:00,57.0,50.9,30.15,NE,45,0.0,0.0,80,0.00,,,0.00,WUHU216HW,2013-10-18 20:25:00,
2013-10-18 22:30:00,57.0,50.9,30.16,NE,45,0.0,0.0,80,0.00,,,0.00,WUHU216HW,2013-10-18 20:30:00,
2013-10-18 22:35:00,57.0,50.9,30.15,NE,45,0.0,0.0,80,0.00,,,0.00,WUHU216HW,2013-10-18 20:35:00,
2013-10-18 22:40:00,57.3,51.2,30.16,NE,45,0.0,0.0,80,0.00,,,0.00,WUHU216HW,2013-10-18 20:40:00,
2013-10-18 22:45:00,57.3,51.2,30.17,NE,45,0.0,0.0,80,0.00,,,0.00,WUHU216HW,2013-10-18 20:45:00,
2013-10-18 22:50:00,57.3,51.2,30.16,ENE,68,0.0,0.0,80,0.00,,,0.00,WUHU216HW,2013-10-18 20:50:00,
2013-10-18 22:55:00,57.2,50.9,30.16,NE,45,0.0,0.0,80,0.00,,,0.00,WUHU216HW,2013-10-18 20:55:00,
2013-10-18 23:00:00,57.3,51.2,30.16,NE,45,0.0,0.0,80,0.00,,,0.00,WUHU216HW,2013-10-18 21:00:00,
2013-10-18 23:05:00,57.3,51.2,30.16,NE,45,0.0,0.0,80,0.00,,,0.00,WUHU216HW,2013-10-18 21:05:00,
2013-10-18 23:10:00,57.3,51.2,30.16,NE,45,0.0,0.0,80,0.00,,,0.00,WUHU216HW,2013-10-18 21:10:00,
2013-10-18 23:15:00,57.0,50.7,30.16,NE,45,0.0,0.0,80,0.00,,,0.00,WUHU216HW,2013-10-18 21:15:00,
2013-10-18 23:20:00,56.8,50.7,30.16,North,0,0.0,0.0,80,0.00,,,0.00,WUHU216HW,2013-10-18 21:20:00,
2013-10-18 23:25:00,56.6,50.5,30.16,NNW,338,0.0,0.0,80,0.00,,,0.00,WUHU216HW,2013-10-18 21:25:00,
2013-10-18 23:30:00,56.6,50.5,30.16,NNW,338,0.0,0.0,80,0.00,,,0.00,WUHU216HW,2013-10-18 21:30:00,
2013-10-18 23:35:00,56.8,50.7,30.16,NW,315,0.0,0.0,80,0.00,,,0.00,WUHU216HW,2013-10-18 21:35:00,
2013-10-18 23:40:00,56.8,50.7,30.16,NW,315,0.0,0.0,80,0.00,,,0.00,WUHU216HW,2013-10-18 21:40:00,
2013-10-18 23:45:00,56.6,50.3,30.16,NW,315,0.0,0.0,80,0.00,,,0.00,WUHU216HW,2013-10-18 21:45:00,
2013-10-18 23:50:00,56.4,50.3,30.16,NNW,338,0.0,0.0,80,0.00,,,0.00,WUHU216HW,2013-10-18 21:50:00,
2013-10-18 23:55:00,56.1,50.0,30.16,North,0,0.0,0.0,80,0.00,,,0.00,WUHU216HW,2013-10-18 21:55:00,